createdAt,value
2022-12-13T00:01:20.046Z,97.25
2022-12-13T00:04:13.833Z,97.15
2022-12-13T00:07:03.342Z,95.80
2022-12-13T00:09:52.610Z,87.00
2022-12-13T00:12:41.892Z,90.45
2022-12-13T00:15:31.389Z,94.68
2022-12-13T00:18:20.676Z,93.07
2022-12-13T00:21:19.002Z,99.88
2022-12-13T00:24:09.471Z,101.57
2022-12-13T00:26:58.847Z,100.18
2022-12-13T00:29:48.269Z,103.35
2022-12-13T00:32:37.603Z,109.10
2022-12-13T00:35:26.940Z,107.60
2022-12-13T00:38:17.753Z,104.93
2022-12-13T00:41:15.775Z,99.68
2022-12-13T00:44:06.225Z,95.45
2022-12-13T00:46:56.681Z,88.78
2022-12-13T00:49:46.023Z,83.90
2022-12-13T00:52:35.969Z,86.70
2022-12-13T00:55:27.066Z,80.75
2022-12-13T00:58:16.323Z,79.70
2022-12-13T01:01:08.179Z,77.63
2022-12-13T01:04:00.499Z,76.82
2022-12-13T01:06:51.530Z,75.97
2022-12-13T01:09:42.485Z,74.40
2022-12-13T01:12:33.459Z,73.13
2022-12-13T01:15:22.758Z,81.75
2022-12-13T01:18:13.423Z,78.20
2022-12-13T01:21:06.434Z,79.50
2022-12-13T01:23:57.327Z,80.18
2022-12-13T01:26:46.614Z,76.70
2022-12-13T01:29:37.908Z,71.68
2022-12-13T01:32:33.812Z,74.35
2022-12-13T01:35:23.524Z,75.47
2022-12-13T01:38:15.665Z,70.82
2022-12-13T01:41:08.922Z,69.78
2022-12-13T01:44:08.434Z,71.88
2022-12-13T01:46:59.154Z,74.68
2022-12-13T01:49:48.857Z,70.35
2022-12-13T01:52:38.792Z,60.83
2022-12-13T01:55:33.503Z,66.82
2022-12-13T01:58:32.100Z,68.35
2022-12-13T02:01:21.588Z,69.03
2022-12-13T02:04:13.725Z,69.25
2022-12-13T02:07:03.246Z,73.70
2022-12-13T02:09:56.861Z,70.22
2022-12-13T02:12:46.926Z,67.47
2022-12-13T02:15:49.946Z,67.45
2022-12-13T02:18:56.837Z,68.78
2022-12-13T02:22:06.801Z,65.88
2022-12-13T02:25:45.758Z,65.45
2022-12-13T02:28:56.344Z,61.55
2022-12-13T02:31:53.870Z,63.33
2022-12-13T02:34:48.892Z,64.32
2022-12-13T02:37:52.123Z,66.00
2022-12-13T02:40:46.754Z,71.10
2022-12-13T02:43:45.634Z,78.03
2022-12-13T02:46:41.570Z,76.68
2022-12-13T02:49:38.340Z,87.75
2022-12-13T02:52:31.060Z,88.85
2022-12-13T02:55:23.907Z,85.78
2022-12-13T02:58:21.302Z,80.22
2022-12-13T03:01:32.488Z,80.93
2022-12-13T03:05:07.693Z,70.80
2022-12-13T03:08:08.681Z,69.80
2022-12-13T03:11:07.464Z,70.22
2022-12-13T03:14:00.074Z,68.50
2022-12-13T03:16:53.850Z,68.47
2022-12-13T03:19:45.257Z,66.88
2022-12-13T03:22:36.500Z,62.72
2022-12-13T03:25:32.922Z,63.33
2022-12-13T03:28:23.157Z,64.90
2022-12-13T03:31:12.564Z,63.08
2022-12-13T03:34:02.078Z,63.60
2022-12-13T03:36:53.368Z,59.97
2022-12-13T03:39:42.724Z,62.88
2022-12-13T03:42:32.090Z,69.50
2022-12-13T03:45:21.355Z,67.43
2022-12-13T03:48:10.592Z,63.63
2022-12-13T03:50:59.947Z,65.97
2022-12-13T03:53:50.653Z,64.72
2022-12-13T03:56:39.899Z,75.43
2022-12-13T03:59:29.470Z,75.38
2022-12-13T04:02:31.007Z,80.45
2022-12-13T04:05:21.156Z,142.82
2022-12-13T04:08:21.491Z,97.80
2022-12-13T04:11:30.255Z,90.18
2022-12-13T04:14:21.921Z,73.15
2022-12-13T04:17:12.351Z,72.97
2022-12-13T04:20:01.736Z,68.45
2022-12-13T04:22:51.317Z,66.13
2022-12-13T04:25:41.934Z,65.57
2022-12-13T04:28:32.621Z,64.65
2022-12-13T04:31:21.997Z,62.47
2022-12-13T04:34:11.632Z,61.63
2022-12-13T04:37:01.119Z,57.85
2022-12-13T04:39:50.465Z,63.67
2022-12-13T04:42:40.039Z,58.28
2022-12-13T04:45:30.904Z,62.28
2022-12-13T04:48:31.215Z,58.60
2022-12-13T04:51:21.382Z,58.72
2022-12-13T04:54:12.990Z,58.25
2022-12-13T04:57:14.341Z,62.75
2022-12-13T05:00:04.133Z,58.67
2022-12-13T05:02:54.857Z,59.92
2022-12-13T05:05:44.236Z,58.13
2022-12-13T05:08:33.921Z,64.40
2022-12-13T05:11:23.563Z,58.83
2022-12-13T05:14:13.067Z,64.53
2022-12-13T05:17:03.262Z,64.90
2022-12-13T05:19:53.960Z,62.75
2022-12-13T05:22:43.279Z,64.57
2022-12-13T05:25:33.910Z,67.07
2022-12-13T05:28:27.877Z,66.32
2022-12-13T05:31:23.438Z,63.28
2022-12-13T05:34:13.538Z,61.10
2022-12-13T05:37:04.584Z,60.65
2022-12-13T05:39:53.891Z,63.97
2022-12-13T05:42:43.242Z,62.70
2022-12-13T05:45:33.796Z,64.68
2022-12-13T05:48:24.645Z,67.70
2022-12-13T05:51:14.544Z,67.00
2022-12-13T05:54:05.392Z,66.95
2022-12-13T05:56:54.690Z,69.65
2022-12-13T05:59:44.388Z,67.70
2022-12-13T06:02:33.826Z,68.05
2022-12-13T06:05:23.200Z,71.63
2022-12-13T06:08:24.629Z,68.80
2022-12-13T06:11:31.746Z,66.82
2022-12-13T06:14:23.300Z,66.15
2022-12-13T06:17:12.674Z,67.50
2022-12-13T06:20:02.231Z,69.50
2022-12-13T06:23:11.772Z,66.38
2022-12-13T06:26:03.656Z,71.45
2022-12-13T06:28:54.396Z,70.80
2022-12-13T06:31:43.748Z,76.15
2022-12-13T06:34:36.165Z,80.18
2022-12-13T06:37:25.671Z,77.20
2022-12-13T06:40:18.737Z,74.20
2022-12-13T06:43:10.960Z,77.32
2022-12-13T06:46:03.450Z,75.72
2022-12-13T06:48:53.984Z,77.68
2022-12-13T06:51:43.361Z,76.47
2022-12-13T06:54:33.130Z,71.90
2022-12-13T06:57:22.408Z,69.85
2022-12-13T07:00:13.435Z,68.63
2022-12-13T07:03:04.175Z,66.88
2022-12-13T07:05:56.855Z,66.28
2022-12-13T07:08:53.472Z,65.68
2022-12-13T07:11:45.840Z,71.43
2022-12-13T07:14:40.824Z,64.22
2022-12-13T07:17:31.923Z,64.90
2022-12-13T07:20:25.179Z,64.38
2022-12-13T07:23:14.770Z,63.80
2022-12-13T07:26:05.214Z,66.10
2022-12-13T07:28:55.545Z,63.58
2022-12-13T07:31:45.108Z,65.03
2022-12-13T07:34:34.641Z,66.05
2022-12-13T07:37:29.517Z,66.28
2022-12-13T07:40:20.495Z,65.05
2022-12-13T07:43:12.029Z,62.92
2022-12-13T07:46:02.744Z,59.67
2022-12-13T07:48:52.156Z,71.60
2022-12-13T07:51:51.205Z,61.65
2022-12-13T07:54:41.967Z,59.22
2022-12-13T07:57:31.575Z,61.17
2022-12-13T08:00:24.560Z,64.57
2022-12-13T08:06:15.217Z,62.67
2022-12-13T08:09:06.320Z,64.35
2022-12-13T08:11:57.163Z,78.95
2022-12-13T08:14:53.102Z,136.35
2022-12-13T08:17:42.889Z,126.13
2022-12-13T08:20:32.331Z,120.90
2022-12-13T08:23:22.331Z,121.38
2022-12-13T08:26:12.345Z,105.07
2022-12-13T08:29:03.444Z,79.35
2022-12-13T08:31:54.061Z,72.95
2022-12-13T08:34:44.135Z,64.25
2022-12-13T08:37:33.538Z,58.00
2022-12-13T08:40:22.952Z,53.05
2022-12-13T08:43:13.064Z,47.85
2022-12-13T08:46:04.090Z,50.78
2022-12-13T08:48:55.169Z,43.63
2022-12-13T08:51:44.580Z,43.40
2022-12-13T08:54:35.059Z,33.35
2022-12-13T08:57:24.455Z,40.78
2022-12-13T09:00:17.343Z,33.97
2022-12-13T09:03:09.913Z,32.25
2022-12-13T09:06:06.664Z,58.67
2022-12-13T09:08:56.222Z,38.55
2022-12-13T09:11:45.578Z,30.60
2022-12-13T09:14:35.513Z,36.58
2022-12-13T09:17:25.365Z,37.55
2022-12-13T09:20:29.017Z,33.03
2022-12-13T09:23:23.895Z,33.35
2022-12-13T09:26:16.557Z,38.85
2022-12-13T09:29:11.037Z,36.42
2022-12-13T09:32:02.122Z,38.33
2022-12-13T09:34:51.568Z,39.10
2022-12-13T09:37:45.926Z,30.98
2022-12-13T09:40:38.464Z,31.08
2022-12-13T09:43:33.546Z,31.57
2022-12-13T09:46:44.062Z,30.48
2022-12-13T09:49:39.414Z,30.60
2022-12-13T09:52:39.683Z,36.17
2022-12-13T09:55:35.598Z,33.90
2022-12-13T09:58:30.254Z,33.67
2022-12-13T10:01:22.505Z,44.42
2022-12-13T10:04:16.045Z,37.97
2022-12-13T10:07:13.636Z,32.63
2022-12-13T10:10:03.051Z,31.88
2022-12-13T10:13:03.773Z,49.20
2022-12-13T10:16:00.194Z,31.75
2022-12-13T10:18:52.034Z,30.08
2022-12-13T10:21:48.726Z,32.67
2022-12-13T10:24:53.206Z,34.80
2022-12-13T10:27:45.430Z,68.45
2022-12-13T10:30:46.331Z,45.40
2022-12-13T10:33:42.020Z,23.67
2022-12-13T10:36:35.792Z,31.58
2022-12-13T10:39:40.870Z,26.90
2022-12-13T10:42:34.025Z,18.15
2022-12-13T10:45:25.075Z,25.08
2022-12-13T10:48:25.139Z,25.85
2022-12-13T10:51:18.006Z,19.40
2022-12-13T10:54:15.410Z,21.88
2022-12-13T10:57:05.035Z,18.27
2022-12-13T10:59:54.687Z,31.25
2022-12-13T11:02:56.173Z,27.38
2022-12-13T11:05:50.355Z,22.45
2022-12-13T11:08:39.813Z,24.63
2022-12-13T11:11:31.563Z,31.42
2022-12-13T11:14:32.367Z,18.50
2022-12-13T11:17:25.851Z,49.80
2022-12-13T11:23:31.231Z,19.15
2022-12-13T11:26:24.462Z,24.40
2022-12-13T11:29:48.051Z,31.30
2022-12-13T11:33:04.282Z,74.50
2022-12-13T11:36:24.892Z,40.60
2022-12-13T11:39:28.205Z,40.05
2022-12-13T11:42:26.499Z,62.20
2022-12-13T11:45:23.081Z,56.38
2022-12-13T11:48:31.369Z,88.82
2022-12-13T11:51:29.904Z,59.50
2022-12-13T11:54:29.393Z,62.95
2022-12-13T11:57:44.164Z,74.88
2022-12-13T12:00:38.195Z,47.83
2022-12-13T12:03:38.637Z,58.30
2022-12-13T12:06:34.231Z,103.88
2022-12-13T12:09:29.185Z,53.20
2022-12-13T12:12:31.444Z,96.55
2022-12-13T12:15:27.388Z,33.40
2022-12-13T12:18:18.151Z,45.00
2022-12-13T12:21:56.543Z,37.50
2022-12-13T12:24:57.434Z,50.83
2022-12-13T12:27:56.407Z,33.17
2022-12-13T12:30:57.015Z,50.55
2022-12-13T12:33:58.686Z,44.10
2022-12-13T12:37:05.501Z,35.05
2022-12-13T12:41:07.520Z,50.58
2022-12-13T12:43:46.169Z,41.85
2022-12-13T12:47:28.584Z,35.97
2022-12-13T12:50:31.595Z,37.60
2022-12-13T12:53:39.125Z,34.67
2022-12-13T12:56:40.632Z,25.25
2022-12-13T12:59:41.568Z,31.38
2022-12-13T13:02:41.169Z,37.30
2022-12-13T13:05:40.135Z,27.73
2022-12-13T13:08:37.187Z,34.45
2022-12-13T13:11:29.199Z,31.73
2022-12-13T13:14:34.960Z,36.63
2022-12-13T13:17:47.021Z,45.13
2022-12-13T13:20:36.758Z,43.30
2022-12-13T13:23:38.690Z,67.38
2022-12-13T13:26:36.276Z,53.33
2022-12-13T13:29:37.334Z,44.97
2022-12-13T13:32:30.366Z,32.40
2022-12-13T13:35:54.506Z,33.50
2022-12-13T13:38:55.026Z,32.35
2022-12-13T13:42:10.000Z,30.75
2022-12-13T13:45:27.339Z,38.63
2022-12-13T13:48:37.039Z,56.63
2022-12-13T13:55:44.492Z,18.30
2022-12-13T13:59:31.846Z,39.15
2022-12-13T14:06:01.076Z,19.80
2022-12-13T14:09:15.793Z,21.33
2022-12-13T14:12:56.025Z,25.13
2022-12-13T14:16:47.432Z,27.25
2022-12-13T14:20:19.494Z,30.27
2022-12-13T14:23:22.463Z,20.42
2022-12-13T14:26:42.058Z,21.88
2022-12-13T14:29:38.814Z,22.52
2022-12-13T14:32:32.933Z,22.85
2022-12-13T14:35:28.775Z,22.98
2022-12-13T14:38:24.637Z,20.42
2022-12-13T14:41:20.609Z,22.85
2022-12-13T14:44:17.771Z,26.58
2022-12-13T14:47:09.672Z,22.15
2022-12-13T14:49:59.963Z,20.15
2022-12-13T14:52:51.182Z,27.40
2022-12-13T14:55:42.606Z,24.60
2022-12-13T14:58:32.109Z,26.27
2022-12-13T15:01:29.152Z,27.95
2022-12-13T15:04:24.765Z,25.73
2022-12-13T15:07:22.377Z,26.52
2022-12-13T15:10:24.505Z,26.90
2022-12-13T15:13:29.892Z,35.05
2022-12-13T15:16:28.631Z,30.45
2022-12-13T15:19:31.133Z,58.78
2022-12-13T15:22:29.918Z,29.17
2022-12-13T15:25:23.087Z,40.17
2022-12-13T15:28:21.163Z,40.35
2022-12-13T15:31:14.046Z,39.70
2022-12-13T15:34:38.099Z,35.40
2022-12-13T15:37:34.030Z,29.30
2022-12-13T15:40:24.592Z,24.50
2022-12-13T15:43:18.159Z,23.67
2022-12-13T15:46:07.984Z,25.05
2022-12-13T15:49:02.164Z,27.13
2022-12-13T15:52:05.490Z,27.00
2022-12-13T16:00:50.644Z,29.63
2022-12-13T16:03:44.450Z,27.00
2022-12-13T16:06:36.536Z,31.58
2022-12-13T16:09:30.156Z,24.13
2022-12-13T16:12:26.680Z,23.90
2022-12-13T16:15:20.524Z,24.48
2022-12-13T16:18:26.643Z,24.85
2022-12-13T16:21:16.166Z,23.63
2022-12-13T16:24:07.700Z,25.08
2022-12-13T16:26:57.091Z,22.85
2022-12-13T16:29:48.774Z,26.42
2022-12-13T16:33:02.822Z,27.10
2022-12-13T16:35:47.391Z,20.00
2022-12-13T16:38:36.994Z,22.75
2022-12-13T16:41:27.993Z,25.40
2022-12-13T16:44:24.988Z,22.63
2022-12-13T16:47:24.368Z,22.23
2022-12-13T16:50:21.996Z,24.15
2022-12-13T16:53:17.014Z,33.45
2022-12-13T16:56:11.281Z,23.80
2022-12-13T16:59:02.177Z,25.33
2022-12-13T17:01:51.921Z,21.38
2022-12-13T17:04:41.650Z,24.00
2022-12-13T17:07:31.024Z,26.65
2022-12-13T17:10:21.543Z,28.42
2022-12-13T17:13:11.838Z,25.92
2022-12-13T17:16:05.230Z,24.10
2022-12-13T17:18:55.844Z,28.80
2022-12-13T17:21:45.236Z,22.33
2022-12-13T17:24:35.749Z,22.25
2022-12-13T17:27:25.191Z,25.38
2022-12-13T17:30:18.835Z,27.35
2022-12-13T17:33:12.003Z,31.73
2022-12-13T17:38:53.355Z,31.15
2022-12-13T17:41:42.883Z,35.47
2022-12-13T17:44:44.099Z,30.52
2022-12-13T17:47:33.601Z,24.80
2022-12-13T17:50:24.280Z,27.02
2022-12-13T17:53:13.604Z,30.75
2022-12-13T17:56:07.841Z,28.42
2022-12-13T17:58:57.387Z,23.00
2022-12-13T18:01:47.697Z,21.60
2022-12-13T18:04:37.247Z,21.33
2022-12-13T18:07:28.701Z,22.23
2022-12-13T18:10:18.912Z,24.73
2022-12-13T18:13:08.429Z,51.05
2022-12-13T18:15:58.506Z,29.67
2022-12-13T18:18:54.839Z,32.75
2022-12-13T18:21:45.047Z,33.05
2022-12-13T18:24:35.702Z,34.97
2022-12-13T18:27:24.992Z,35.08
2022-12-13T18:30:15.147Z,33.92
2022-12-13T18:33:05.495Z,34.72
2022-12-13T18:35:54.957Z,39.80
2022-12-13T18:38:44.863Z,34.40
2022-12-13T18:41:36.634Z,32.83
2022-12-13T18:44:26.037Z,45.13
2022-12-13T18:47:20.918Z,50.25
2022-12-13T18:50:11.460Z,52.50
2022-12-13T18:53:00.763Z,52.55
2022-12-13T18:55:50.114Z,55.08
2022-12-13T18:58:41.002Z,54.65
2022-12-13T19:01:30.710Z,57.00
2022-12-13T19:04:20.159Z,54.28
2022-12-13T19:07:10.242Z,83.40
2022-12-13T19:09:59.488Z,97.85
2022-12-13T19:12:48.934Z,99.03
2022-12-13T19:15:41.858Z,102.82
2022-12-13T19:18:31.248Z,112.95
2022-12-13T19:21:23.131Z,110.85
2022-12-13T19:24:15.025Z,105.82
2022-12-13T19:27:04.357Z,119.68
2022-12-13T19:29:53.845Z,132.90
2022-12-13T19:32:48.381Z,132.48
2022-12-13T19:35:37.919Z,127.43
2022-12-13T19:38:27.414Z,138.73
2022-12-13T19:41:20.096Z,144.45
2022-12-13T19:44:10.279Z,142.50
2022-12-13T19:47:00.209Z,134.98
2022-12-13T19:49:50.954Z,143.82
2022-12-13T19:52:40.370Z,136.85
2022-12-13T19:55:29.892Z,132.55
2022-12-13T19:58:19.260Z,108.25
2022-12-13T20:01:09.491Z,113.22
2022-12-13T20:03:59.014Z,91.95
2022-12-13T20:06:49.750Z,82.70
2022-12-13T20:09:40.385Z,69.85
2022-12-13T20:12:33.082Z,52.97
2022-12-13T20:15:27.393Z,51.50
2022-12-13T20:18:16.879Z,50.95
2022-12-13T20:21:12.470Z,49.75
2022-12-13T20:24:04.171Z,48.47
2022-12-13T20:26:53.567Z,49.10
2022-12-13T20:29:43.109Z,49.38
2022-12-13T20:32:38.165Z,49.13
2022-12-13T20:35:27.875Z,53.22
2022-12-13T20:38:18.475Z,54.17
2022-12-13T20:41:11.355Z,57.95
2022-12-13T20:44:02.444Z,57.83
2022-12-13T20:46:51.853Z,59.17
2022-12-13T20:49:42.872Z,56.95
2022-12-13T20:52:37.840Z,56.17
2022-12-13T20:55:27.419Z,63.75
2022-12-13T20:58:18.172Z,55.63
2022-12-13T21:01:08.393Z,57.03
2022-12-13T21:04:00.391Z,45.10
2022-12-13T21:06:49.792Z,45.55
2022-12-13T21:09:39.112Z,43.83
2022-12-13T21:12:30.600Z,41.53
2022-12-13T21:15:21.549Z,42.38
2022-12-13T21:18:10.894Z,44.30
2022-12-13T21:21:00.124Z,53.70
2022-12-13T21:23:49.628Z,85.13
2022-12-13T21:26:38.852Z,91.45
2022-12-13T21:29:28.318Z,96.15
2022-12-13T21:32:19.110Z,142.13
2022-12-13T21:35:11.894Z,88.82
2022-12-13T21:40:54.933Z,102.45
2022-12-13T21:43:44.266Z,108.00
2022-12-13T21:49:48.989Z,89.03
2022-12-13T21:52:38.773Z,66.30
2022-12-13T21:55:38.847Z,60.30
2022-12-13T21:58:45.820Z,37.70
2022-12-13T22:01:48.926Z,41.00
2022-12-13T22:04:40.882Z,44.70
2022-12-13T22:07:34.584Z,38.67
2022-12-13T22:10:23.884Z,28.38
2022-12-13T22:13:13.219Z,58.20
2022-12-13T22:16:02.684Z,35.00
2022-12-13T22:18:55.564Z,38.05
2022-12-13T22:21:44.985Z,26.05
2022-12-13T22:24:35.696Z,26.73
2022-12-13T22:27:25.926Z,51.97
2022-12-13T22:30:15.685Z,34.60
2022-12-13T22:33:05.568Z,34.50
2022-12-13T22:35:54.811Z,25.95
2022-12-13T22:38:44.653Z,34.95
2022-12-13T22:41:35.540Z,37.92
2022-12-13T22:44:24.828Z,46.20
2022-12-13T22:47:14.267Z,40.33
2022-12-13T22:50:03.591Z,37.78
2022-12-13T22:52:52.919Z,28.05
2022-12-13T22:55:42.232Z,28.63
2022-12-13T22:58:33.458Z,28.58
2022-12-13T23:01:25.253Z,31.90
2022-12-13T23:04:14.683Z,53.78
2022-12-13T23:07:04.505Z,45.17
2022-12-13T23:09:53.817Z,34.80
2022-12-13T23:13:06.007Z,34.85
2022-12-13T23:15:57.692Z,48.13
2022-12-13T23:18:47.273Z,39.38
2022-12-13T23:21:36.607Z,35.50
2022-12-13T23:24:26.190Z,38.38
2022-12-13T23:27:15.549Z,40.97
2022-12-13T23:30:06.207Z,37.47
2022-12-13T23:32:57.326Z,59.08
2022-12-13T23:35:46.573Z,49.95
2022-12-13T23:38:36.624Z,45.10
2022-12-13T23:41:33.539Z,39.38
2022-12-13T23:44:23.493Z,45.75
2022-12-13T23:47:13.002Z,43.70
2022-12-13T23:50:03.654Z,56.72
2022-12-13T23:52:52.929Z,41.95
2022-12-13T23:55:42.222Z,41.42
2022-12-13T23:58:39.278Z,49.00
